createdAt,value
2022-09-17T00:03:06.166Z,9.45
2022-09-17T00:08:13.699Z,10.02
2022-09-17T00:13:16.517Z,10.28
2022-09-17T00:18:19.605Z,9.73
2022-09-17T00:23:23.745Z,9.71
2022-09-17T00:28:26.649Z,9.79
2022-09-17T00:33:29.377Z,9.49
2022-09-17T00:38:33.918Z,9.61
2022-09-17T00:43:40.215Z,9.81
2022-09-17T00:48:43.039Z,9.47
2022-09-17T00:53:47.429Z,9.28
2022-09-17T00:58:51.698Z,9.76
2022-09-17T01:03:54.446Z,9.54
2022-09-17T01:09:11.865Z,9.78
2022-09-17T01:14:32.570Z,9.60
2022-09-17T01:20:04.478Z,9.53
2022-09-17T01:25:24.904Z,9.31
2022-09-17T01:30:36.128Z,9.37
2022-09-17T01:35:48.728Z,9.64
2022-09-17T01:40:56.980Z,9.51
2022-09-17T01:46:08.380Z,9.20
2022-09-17T01:51:15.179Z,8.99
2022-09-17T01:56:21.460Z,9.20
2022-09-17T02:01:31.058Z,9.04
2022-09-17T02:06:38.605Z,9.36
2022-09-17T02:11:43.722Z,9.44
2022-09-17T02:16:53.078Z,9.74
2022-09-17T02:22:03.929Z,9.66
2022-09-17T02:27:13.348Z,9.48
2022-09-17T02:32:17.520Z,9.54
2022-09-17T02:37:20.525Z,8.93
2022-09-17T02:42:32.291Z,8.95
2022-09-17T02:47:59.901Z,8.96
2022-09-17T02:53:20.946Z,8.94
2022-09-17T02:58:29.494Z,9.25
2022-09-17T03:03:39.058Z,8.73
2022-09-17T03:08:43.303Z,8.86
2022-09-17T03:13:46.282Z,8.73
2022-09-17T03:18:50.454Z,8.64
2022-09-17T03:23:53.337Z,8.76
2022-09-17T03:28:56.113Z,8.75
2022-09-17T03:34:00.066Z,8.57
2022-09-17T03:39:03.206Z,8.55
2022-09-17T03:44:06.593Z,8.32
2022-09-17T03:49:10.809Z,8.54
2022-09-17T03:54:13.600Z,8.38
2022-09-17T03:59:16.384Z,8.14
2022-09-17T04:04:20.509Z,8.23
2022-09-17T04:09:23.277Z,8.14
2022-09-17T04:14:25.846Z,8.08
2022-09-17T04:19:29.993Z,8.13
2022-09-17T04:24:32.807Z,8.23
2022-09-17T04:29:35.393Z,8.26
2022-09-17T04:34:39.575Z,7.98
2022-09-17T04:39:42.337Z,8.12
2022-09-17T04:44:45.014Z,7.88
2022-09-17T04:49:49.246Z,8.02
2022-09-17T04:54:52.064Z,8.13
2022-09-17T04:59:54.668Z,7.87
2022-09-17T05:04:59.054Z,8.07
2022-09-17T05:10:01.830Z,7.85
2022-09-17T05:15:04.748Z,7.79
2022-09-17T05:20:09.824Z,7.67
2022-09-17T05:25:13.013Z,7.74
2022-09-17T05:30:15.833Z,7.63
2022-09-17T05:35:20.109Z,7.94
2022-09-17T05:40:22.947Z,7.84
2022-09-17T05:45:25.753Z,7.22
2022-09-17T05:50:30.833Z,7.83
2022-09-17T05:55:34.912Z,7.90
2022-09-17T06:00:37.781Z,7.33
2022-09-17T06:06:31.023Z,8.17
2022-09-17T06:11:35.166Z,8.22
2022-09-17T06:16:38.272Z,8.35
2022-09-17T06:21:40.993Z,8.71
2022-09-17T06:26:44.847Z,8.94
2022-09-17T06:31:48.951Z,9.38
2022-09-17T06:36:51.827Z,9.11
2022-09-17T06:41:55.726Z,9.12
2022-09-17T06:46:58.462Z,8.98
2022-09-17T06:52:01.787Z,9.59
2022-09-17T06:57:07.104Z,9.45
2022-09-17T07:02:10.534Z,9.22
2022-09-17T07:07:13.496Z,9.37
2022-09-17T07:12:17.693Z,9.42
2022-09-17T07:17:20.480Z,9.03
2022-09-17T07:22:25.611Z,9.70
2022-09-17T07:27:30.641Z,9.36
2022-09-17T07:32:33.398Z,9.75
2022-09-17T07:37:36.344Z,9.96
2022-09-17T07:42:40.735Z,10.17
2022-09-17T07:47:44.340Z,10.34
2022-09-17T07:52:48.068Z,10.25
2022-09-17T07:57:55.051Z,10.40
2022-09-17T08:02:58.645Z,10.57
2022-09-17T08:08:01.621Z,10.76
2022-09-17T08:13:05.716Z,11.15
2022-09-17T08:18:08.585Z,10.99
2022-09-17T08:23:11.293Z,11.29
2022-09-17T08:28:15.431Z,11.59
2022-09-17T08:33:18.941Z,11.66
2022-09-17T08:38:22.152Z,11.71
2022-09-17T08:43:27.043Z,12.04
2022-09-17T08:48:38.243Z,12.16
2022-09-17T08:53:53.685Z,12.59
2022-09-17T08:59:11.774Z,12.76
2022-09-17T09:04:38.100Z,13.19
2022-09-17T09:09:46.588Z,13.01
2022-09-17T09:14:57.096Z,13.13
2022-09-17T09:19:59.857Z,12.48
2022-09-17T09:25:12.845Z,12.02
2022-09-17T09:30:18.627Z,12.44
2022-09-17T09:35:24.776Z,13.46
2022-09-17T09:40:36.142Z,13.66
2022-09-17T09:46:00.678Z,14.79
2022-09-17T09:51:17.375Z,14.34
2022-09-17T09:56:44.584Z,13.93
2022-09-17T10:01:49.093Z,14.01
2022-09-17T10:06:54.703Z,13.93
2022-09-17T10:12:06.562Z,14.58
2022-09-17T10:17:19.248Z,14.48
2022-09-17T10:22:27.060Z,14.03
2022-09-17T10:27:31.463Z,13.07
2022-09-17T10:32:36.173Z,12.90
2022-09-17T10:37:45.246Z,14.07
2022-09-17T10:42:48.779Z,13.80
2022-09-17T10:47:54.046Z,14.83
2022-09-17T10:52:58.782Z,16.31
2022-09-17T10:58:11.962Z,14.56
2022-09-17T11:04:01.310Z,15.40
2022-09-17T11:09:16.256Z,16.11
2022-09-17T11:14:41.303Z,14.59
2022-09-17T11:19:58.797Z,14.03
2022-09-17T11:25:21.254Z,14.85
2022-09-17T11:30:27.102Z,14.99
2022-09-17T11:35:36.589Z,16.11
2022-09-17T11:40:44.324Z,14.91
2022-09-17T11:45:57.794Z,15.21
2022-09-17T11:51:05.990Z,15.08
2022-09-17T11:56:17.769Z,14.96
2022-09-17T12:01:25.856Z,14.94
2022-09-17T12:06:38.094Z,15.76
2022-09-17T12:11:45.309Z,15.34
2022-09-17T12:16:53.090Z,15.50
2022-09-17T12:22:01.513Z,14.56
2022-09-17T12:27:25.355Z,14.55
2022-09-17T12:32:43.300Z,14.32
2022-09-17T12:37:57.907Z,14.48
2022-09-17T12:43:18.342Z,16.95
2022-09-17T12:48:41.460Z,17.01
2022-09-17T12:53:57.542Z,17.28
2022-09-17T12:59:08.934Z,17.91
2022-09-17T13:04:43.644Z,16.31
2022-09-17T13:10:12.831Z,14.15
2022-09-17T13:15:37.732Z,16.15
2022-09-17T13:20:53.681Z,15.03
2022-09-17T13:26:05.744Z,13.22
2022-09-17T13:31:08.777Z,13.91
2022-09-17T13:36:38.051Z,15.60
2022-09-17T13:41:43.522Z,13.93
2022-09-17T13:46:47.761Z,15.66
2022-09-17T13:51:54.920Z,15.97
2022-09-17T13:57:12.293Z,16.73
2022-09-17T14:02:37.318Z,16.24
2022-09-17T14:07:48.983Z,14.89
2022-09-17T14:13:02.691Z,14.82
2022-09-17T14:18:53.878Z,14.29
2022-09-17T14:23:59.585Z,13.83
2022-09-17T14:29:12.855Z,15.02
2022-09-17T14:34:22.179Z,14.40
2022-09-17T14:39:29.185Z,13.69
2022-09-17T14:44:36.081Z,14.12
2022-09-17T14:49:40.894Z,13.91
2022-09-17T14:54:44.730Z,15.32
2022-09-17T14:59:52.219Z,15.20
2022-09-17T15:04:55.048Z,14.34
2022-09-17T15:10:09.394Z,14.54
2022-09-17T15:15:20.419Z,14.10
2022-09-17T15:20:28.807Z,15.38
2022-09-17T15:25:32.809Z,14.87
2022-09-17T15:30:37.260Z,14.58
2022-09-17T15:35:41.057Z,14.02
2022-09-17T15:40:44.175Z,14.31
2022-09-17T15:45:48.965Z,14.27
2022-09-17T15:50:53.327Z,13.59
2022-09-17T15:56:02.783Z,13.85
2022-09-17T16:06:48.163Z,14.28
2022-09-17T16:11:50.987Z,15.33
2022-09-17T16:16:56.173Z,14.42
2022-09-17T16:22:00.508Z,14.02
2022-09-17T16:27:04.682Z,13.27
2022-09-17T16:32:09.901Z,13.03
2022-09-17T16:37:14.062Z,12.52
2022-09-17T16:42:16.828Z,11.80
2022-09-17T16:47:19.720Z,10.81
2022-09-17T16:52:23.888Z,10.70
2022-09-17T16:57:26.792Z,10.41
2022-09-17T17:02:29.575Z,10.69
2022-09-17T17:07:33.736Z,10.42
2022-09-17T17:12:37.131Z,10.54
2022-09-17T17:17:40.162Z,10.06
2022-09-17T17:22:45.150Z,10.50
2022-09-17T17:27:47.980Z,10.87
2022-09-17T17:32:52.170Z,10.54
2022-09-17T17:37:56.428Z,10.66
2022-09-17T17:42:59.232Z,10.54
2022-09-17T17:54:37.174Z,10.82
2022-09-17T17:59:39.944Z,10.60
2022-09-17T18:04:42.473Z,10.77
2022-09-17T18:09:46.989Z,10.97
2022-09-17T18:14:49.629Z,10.27
2022-09-17T18:19:52.455Z,9.88
2022-09-17T18:24:56.620Z,10.16
2022-09-17T18:29:59.465Z,9.77
2022-09-17T18:35:02.354Z,9.82
2022-09-17T18:40:07.466Z,9.55
2022-09-17T18:45:11.117Z,9.75
2022-09-17T18:50:14.338Z,9.94
2022-09-17T18:55:18.534Z,9.80
2022-09-17T19:00:22.584Z,9.45
2022-09-17T19:05:25.424Z,9.71
2022-09-17T19:10:29.599Z,9.61
2022-09-17T19:15:33.827Z,9.45
2022-09-17T19:20:38.550Z,9.74
2022-09-17T19:25:45.026Z,9.63
2022-09-17T19:30:47.935Z,9.33
2022-09-17T19:35:51.179Z,9.56
2022-09-17T19:41:00.237Z,9.25
2022-09-17T19:46:03.606Z,9.59
2022-09-17T19:51:06.754Z,9.57
2022-09-17T19:56:12.857Z,9.72
2022-09-17T20:01:16.730Z,9.36
2022-09-17T20:06:20.981Z,10.08
2022-09-17T20:11:26.296Z,9.55
2022-09-17T20:16:29.199Z,9.56
2022-09-17T20:21:32.055Z,9.36
2022-09-17T20:26:36.326Z,9.23
2022-09-17T20:31:39.613Z,9.20
2022-09-17T20:36:42.818Z,8.94
2022-09-17T20:41:47.007Z,8.99
2022-09-17T20:46:50.138Z,8.98
2022-09-17T20:51:52.973Z,9.13
2022-09-17T20:56:57.340Z,9.51
2022-09-17T21:02:00.266Z,9.10
2022-09-17T21:07:03.199Z,8.92
2022-09-17T21:12:07.808Z,8.93
2022-09-17T21:17:10.646Z,9.14
2022-09-17T21:22:13.455Z,9.02
2022-09-17T21:27:17.393Z,8.84
2022-09-17T21:32:20.166Z,8.80
2022-09-17T21:37:22.928Z,8.54
2022-09-17T21:42:27.208Z,8.36
2022-09-17T21:47:30.029Z,8.56
2022-09-17T21:52:34.452Z,8.74
2022-09-17T21:57:38.590Z,8.58
2022-09-17T22:02:41.437Z,8.58
2022-09-17T22:07:44.310Z,8.26
2022-09-17T22:12:48.428Z,8.58
2022-09-17T22:17:51.153Z,8.59
2022-09-17T22:22:53.715Z,8.03
2022-09-17T22:28:19.632Z,8.41
2022-09-17T22:33:20.529Z,8.25
2022-09-17T22:38:23.105Z,8.61
2022-09-17T22:43:27.182Z,8.44
2022-09-17T22:48:30.951Z,8.77
2022-09-17T22:53:33.755Z,8.37
2022-09-17T22:58:38.249Z,8.46
2022-09-17T23:03:41.714Z,8.50
2022-09-17T23:08:44.834Z,8.58
2022-09-17T23:13:49.718Z,8.35
2022-09-17T23:18:52.804Z,8.60
2022-09-17T23:23:55.500Z,8.56
2022-09-17T23:29:04.384Z,8.38
2022-09-17T23:34:08.053Z,8.65
2022-09-17T23:39:12.522Z,8.71
2022-09-17T23:44:16.642Z,8.74
2022-09-17T23:49:19.471Z,8.47
2022-09-17T23:54:22.196Z,8.33
2022-09-17T23:59:26.265Z,8.41
